sensor_id;sensor_type;location;lat;lon;timestamp;P1;durP1;ratioP1;P2;durP2;ratioP2
8986;SDS011;4529;51.360;12.474;2023-02-26T00:00:20;0.67;;;0.67;;
8986;SDS011;4529;51.360;12.474;2023-02-26T00:05:23;3.80;;;1.17;;
8986;SDS011;4529;51.360;12.474;2023-02-26T00:10:27;4.13;;;1.53;;
8986;SDS011;4529;51.360;12.474;2023-02-26T00:15:30;2.90;;;1.10;;
8986;SDS011;4529;51.360;12.474;2023-02-26T00:20:40;2.27;;;1.10;;
8986;SDS011;4529;51.360;12.474;2023-02-26T00:25:43;1.97;;;1.10;;
8986;SDS011;4529;51.360;12.474;2023-02-26T00:30:47;1.17;;;1.07;;
8986;SDS011;4529;51.360;12.474;2023-02-26T00:35:52;1.17;;;1.10;;
8986;SDS011;4529;51.360;12.474;2023-02-26T00:40:54;1.13;;;1.03;;
8986;SDS011;4529;51.360;12.474;2023-02-26T00:51:30;2.90;;;1.23;;
8986;SDS011;4529;51.360;12.474;2023-02-26T00:56:32;1.20;;;1.10;;
8986;SDS011;4529;51.360;12.474;2023-02-26T01:01:36;1.90;;;1.30;;
8986;SDS011;4529;51.360;12.474;2023-02-26T01:06:44;1.63;;;1.10;;
8986;SDS011;4529;51.360;12.474;2023-02-26T01:11:47;3.47;;;1.20;;
8986;SDS011;4529;51.360;12.474;2023-02-26T01:17:05;1.43;;;1.00;;
8986;SDS011;4529;51.360;12.474;2023-02-26T01:27:29;1.00;;;1.00;;
8986;SDS011;4529;51.360;12.474;2023-02-26T01:43:09;1.33;;;1.20;;
8986;SDS011;4529;51.360;12.474;2023-02-26T01:48:17;1.17;;;0.90;;
8986;SDS011;4529;51.360;12.474;2023-02-26T01:53:27;1.07;;;1.03;;
8986;SDS011;4529;51.360;12.474;2023-02-26T01:58:32;1.23;;;1.10;;
8986;SDS011;4529;51.360;12.474;2023-02-26T02:03:36;1.37;;;1.27;;
8986;SDS011;4529;51.360;12.474;2023-02-26T02:08:39;4.60;;;1.63;;
8986;SDS011;4529;51.360;12.474;2023-02-26T02:24:12;1.63;;;1.17;;
8986;SDS011;4529;51.360;12.474;2023-02-26T02:29:27;1.50;;;1.20;;
8986;SDS011;4529;51.360;12.474;2023-02-26T02:34:33;3.07;;;1.17;;
8986;SDS011;4529;51.360;12.474;2023-02-26T02:39:52;1.87;;;1.30;;
8986;SDS011;4529;51.360;12.474;2023-02-26T02:45:06;2.00;;;1.17;;
8986;SDS011;4529;51.360;12.474;2023-02-26T02:50:12;2.40;;;1.17;;
8986;SDS011;4529;51.360;12.474;2023-02-26T02:55:27;1.83;;;0.90;;
8986;SDS011;4529;51.360;12.474;2023-02-26T03:00:29;1.90;;;1.10;;
8986;SDS011;4529;51.360;12.474;2023-02-26T03:05:32;0.90;;;0.90;;
8986;SDS011;4529;51.360;12.474;2023-02-26T03:10:35;1.87;;;1.00;;
8986;SDS011;4529;51.360;12.474;2023-02-26T03:15:58;0.90;;;0.90;;
8986;SDS011;4529;51.360;12.474;2023-02-26T03:26:33;1.30;;;1.00;;
8986;SDS011;4529;51.360;12.474;2023-02-26T03:31:34;1.13;;;1.00;;
8986;SDS011;4529;51.360;12.474;2023-02-26T03:36:40;0.97;;;0.93;;
8986;SDS011;4529;51.360;12.474;2023-02-26T03:47:04;1.20;;;1.10;;
8986;SDS011;4529;51.360;12.474;2023-02-26T03:52:08;1.47;;;1.20;;
8986;SDS011;4529;51.360;12.474;2023-02-26T03:57:12;1.27;;;1.13;;
8986;SDS011;4529;51.360;12.474;2023-02-26T04:02:21;0.90;;;0.90;;
8986;SDS011;4529;51.360;12.474;2023-02-26T04:07:24;2.53;;;1.20;;
8986;SDS011;4529;51.360;12.474;2023-02-26T04:12:27;1.03;;;1.03;;
8986;SDS011;4529;51.360;12.474;2023-02-26T04:17:31;3.33;;;1.17;;
8986;SDS011;4529;51.360;12.474;2023-02-26T04:22:34;2.10;;;1.13;;
8986;SDS011;4529;51.360;12.474;2023-02-26T04:27:38;1.20;;;1.10;;
8986;SDS011;4529;51.360;12.474;2023-02-26T04:32:42;1.00;;;0.90;;
8986;SDS011;4529;51.360;12.474;2023-02-26T04:37:45;2.60;;;1.10;;
8986;SDS011;4529;51.360;12.474;2023-02-26T04:42:49;1.13;;;1.13;;
8986;SDS011;4529;51.360;12.474;2023-02-26T04:47:52;2.30;;;0.90;;
8986;SDS011;4529;51.360;12.474;2023-02-26T04:53:01;3.57;;;1.30;;
8986;SDS011;4529;51.360;12.474;2023-02-26T04:58:05;1.53;;;1.03;;
8986;SDS011;4529;51.360;12.474;2023-02-26T05:03:08;2.03;;;1.47;;
8986;SDS011;4529;51.360;12.474;2023-02-26T05:08:11;2.53;;;0.83;;
8986;SDS011;4529;51.360;12.474;2023-02-26T05:13:15;0.97;;;0.83;;
8986;SDS011;4529;51.360;12.474;2023-02-26T05:18:20;3.67;;;1.10;;
8986;SDS011;4529;51.360;12.474;2023-02-26T05:23:29;1.80;;;1.10;;
8986;SDS011;4529;51.360;12.474;2023-02-26T05:28:32;0.90;;;0.90;;
8986;SDS011;4529;51.360;12.474;2023-02-26T05:33:36;1.10;;;0.90;;
8986;SDS011;4529;51.360;12.474;2023-02-26T05:38:39;1.17;;;0.90;;
8986;SDS011;4529;51.360;12.474;2023-02-26T05:43:43;3.13;;;1.03;;
8986;SDS011;4529;51.360;12.474;2023-02-26T05:48:48;0.90;;;0.90;;
8986;SDS011;4529;51.360;12.474;2023-02-26T05:53:51;1.00;;;0.90;;
8986;SDS011;4529;51.360;12.474;2023-02-26T05:58:55;1.60;;;0.90;;
8986;SDS011;4529;51.360;12.474;2023-02-26T06:03:58;2.63;;;1.00;;
8986;SDS011;4529;51.360;12.474;2023-02-26T06:09:02;0.83;;;0.83;;
8986;SDS011;4529;51.360;12.474;2023-02-26T06:14:06;1.00;;;0.90;;
8986;SDS011;4529;51.360;12.474;2023-02-26T06:24:19;0.80;;;0.77;;
8986;SDS011;4529;51.360;12.474;2023-02-26T06:29:23;1.47;;;0.80;;
8986;SDS011;4529;51.360;12.474;2023-02-26T06:34:26;0.97;;;0.83;;
8986;SDS011;4529;51.360;12.474;2023-02-26T06:39:30;1.77;;;1.07;;
8986;SDS011;4529;51.360;12.474;2023-02-26T06:44:33;0.73;;;0.70;;
8986;SDS011;4529;51.360;12.474;2023-02-26T06:49:37;1.03;;;0.90;;
8986;SDS011;4529;51.360;12.474;2023-02-26T06:54:40;1.23;;;0.90;;
8986;SDS011;4529;51.360;12.474;2023-02-26T06:59:44;1.30;;;0.70;;
8986;SDS011;4529;51.360;12.474;2023-02-26T07:04:48;1.53;;;1.07;;
8986;SDS011;4529;51.360;12.474;2023-02-26T07:09:51;1.53;;;1.00;;
8986;SDS011;4529;51.360;12.474;2023-02-26T07:14:55;0.80;;;0.80;;
8986;SDS011;4529;51.360;12.474;2023-02-26T07:20:03;3.50;;;1.10;;
8986;SDS011;4529;51.360;12.474;2023-02-26T07:25:07;0.70;;;0.70;;
8986;SDS011;4529;51.360;12.474;2023-02-26T07:30:10;0.87;;;0.87;;
8986;SDS011;4529;51.360;12.474;2023-02-26T07:35:14;4.73;;;1.23;;
8986;SDS011;4529;51.360;12.474;2023-02-26T07:40:19;3.13;;;1.00;;
8986;SDS011;4529;51.360;12.474;2023-02-26T07:45:22;0.77;;;0.77;;
8986;SDS011;4529;51.360;12.474;2023-02-26T07:50:26;2.20;;;1.00;;
8986;SDS011;4529;51.360;12.474;2023-02-26T07:55:29;1.20;;;1.07;;
8986;SDS011;4529;51.360;12.474;2023-02-26T08:00:33;1.50;;;0.97;;
8986;SDS011;4529;51.360;12.474;2023-02-26T08:05:37;2.50;;;1.20;;
8986;SDS011;4529;51.360;12.474;2023-02-26T08:10:41;1.10;;;1.00;;
8986;SDS011;4529;51.360;12.474;2023-02-26T08:15:44;1.60;;;1.00;;
8986;SDS011;4529;51.360;12.474;2023-02-26T08:20:53;1.93;;;1.00;;
8986;SDS011;4529;51.360;12.474;2023-02-26T08:26:03;2.20;;;1.00;;
8986;SDS011;4529;51.360;12.474;2023-02-26T08:31:05;1.93;;;1.20;;
8986;SDS011;4529;51.360;12.474;2023-02-26T08:36:09;2.10;;;0.87;;
8986;SDS011;4529;51.360;12.474;2023-02-26T08:41:12;1.50;;;1.30;;
8986;SDS011;4529;51.360;12.474;2023-02-26T08:46:16;1.37;;;1.20;;
8986;SDS011;4529;51.360;12.474;2023-02-26T08:51:20;1.50;;;1.40;;
8986;SDS011;4529;51.360;12.474;2023-02-26T08:56:23;1.37;;;1.10;;
8986;SDS011;4529;51.360;12.474;2023-02-26T09:01:26;1.77;;;1.07;;
8986;SDS011;4529;51.360;12.474;2023-02-26T09:06:30;3.33;;;1.23;;
8986;SDS011;4529;51.360;12.474;2023-02-26T09:11:34;1.33;;;1.30;;
8986;SDS011;4529;51.360;12.474;2023-02-26T09:16:38;3.50;;;1.70;;
8986;SDS011;4529;51.360;12.474;2023-02-26T09:21:42;2.63;;;1.63;;
8986;SDS011;4529;51.360;12.474;2023-02-26T09:26:45;1.77;;;1.43;;
8986;SDS011;4529;51.360;12.474;2023-02-26T09:31:49;1.60;;;1.17;;
8986;SDS011;4529;51.360;12.474;2023-02-26T09:36:52;1.20;;;1.10;;
8986;SDS011;4529;51.360;12.474;2023-02-26T09:42:01;3.83;;;1.40;;
8986;SDS011;4529;51.360;12.474;2023-02-26T09:47:05;2.77;;;1.50;;
8986;SDS011;4529;51.360;12.474;2023-02-26T09:52:13;2.43;;;1.00;;
8986;SDS011;4529;51.360;12.474;2023-02-26T09:57:29;1.90;;;1.23;;
8986;SDS011;4529;51.360;12.474;2023-02-26T10:02:37;0.60;;;0.60;;
8986;SDS011;4529;51.360;12.474;2023-02-26T10:07:56;0.67;;;0.67;;
8986;SDS011;4529;51.360;12.474;2023-02-26T10:12:59;0.80;;;0.80;;
8986;SDS011;4529;51.360;12.474;2023-02-26T10:18:07;1.43;;;0.87;;
8986;SDS011;4529;51.360;12.474;2023-02-26T10:23:14;3.63;;;1.50;;
8986;SDS011;4529;51.360;12.474;2023-02-26T10:34:34;4.60;;;1.57;;
8986;SDS011;4529;51.360;12.474;2023-02-26T10:39:51;1.47;;;1.10;;
8986;SDS011;4529;51.360;12.474;2023-02-26T10:50:43;1.47;;;1.10;;
8986;SDS011;4529;51.360;12.474;2023-02-26T10:55:53;1.10;;;1.00;;
8986;SDS011;4529;51.360;12.474;2023-02-26T11:01:15;3.27;;;1.30;;
8986;SDS011;4529;51.360;12.474;2023-02-26T11:06:22;1.20;;;1.10;;
8986;SDS011;4529;51.360;12.474;2023-02-26T11:16:55;0.90;;;0.90;;
8986;SDS011;4529;51.360;12.474;2023-02-26T11:21:59;1.33;;;1.13;;
8986;SDS011;4529;51.360;12.474;2023-02-26T11:27:04;1.10;;;0.93;;
8986;SDS011;4529;51.360;12.474;2023-02-26T11:32:14;2.10;;;1.20;;
8986;SDS011;4529;51.360;12.474;2023-02-26T11:37:23;0.80;;;0.80;;
8986;SDS011;4529;51.360;12.474;2023-02-26T11:42:29;1.13;;;0.87;;
8986;SDS011;4529;51.360;12.474;2023-02-26T11:47:32;2.90;;;0.93;;
8986;SDS011;4529;51.360;12.474;2023-02-26T11:52:40;1.63;;;0.90;;
8986;SDS011;4529;51.360;12.474;2023-02-26T11:57:43;2.20;;;0.90;;
8986;SDS011;4529;51.360;12.474;2023-02-26T12:02:46;3.37;;;2.13;;
8986;SDS011;4529;51.360;12.474;2023-02-26T12:07:51;2.60;;;1.40;;
8986;SDS011;4529;51.360;12.474;2023-02-26T12:12:57;2.03;;;1.20;;
8986;SDS011;4529;51.360;12.474;2023-02-26T12:24:10;0.80;;;0.80;;
8986;SDS011;4529;51.360;12.474;2023-02-26T12:29:36;1.60;;;1.00;;
8986;SDS011;4529;51.360;12.474;2023-02-26T12:40:14;1.37;;;0.90;;
8986;SDS011;4529;51.360;12.474;2023-02-26T12:45:52;2.80;;;1.00;;
8986;SDS011;4529;51.360;12.474;2023-02-26T12:51:09;0.77;;;0.70;;
8986;SDS011;4529;51.360;12.474;2023-02-26T13:06:40;2.47;;;0.90;;
8986;SDS011;4529;51.360;12.474;2023-02-26T13:11:58;1.80;;;0.97;;
8986;SDS011;4529;51.360;12.474;2023-02-26T13:17:16;1.13;;;0.80;;
8986;SDS011;4529;51.360;12.474;2023-02-26T13:34:03;1.10;;;0.87;;
8986;SDS011;4529;51.360;12.474;2023-02-26T13:39:30;1.27;;;1.20;;
8986;SDS011;4529;51.360;12.474;2023-02-26T13:44:38;2.30;;;1.33;;
8986;SDS011;4529;51.360;12.474;2023-02-26T14:11:45;4.37;;;2.43;;
8986;SDS011;4529;51.360;12.474;2023-02-26T14:16:52;1.17;;;0.90;;
8986;SDS011;4529;51.360;12.474;2023-02-26T14:22:13;1.80;;;1.00;;
8986;SDS011;4529;51.360;12.474;2023-02-26T14:27:29;0.97;;;0.90;;
8986;SDS011;4529;51.360;12.474;2023-02-26T14:38:02;1.37;;;0.90;;
8986;SDS011;4529;51.360;12.474;2023-02-26T14:43:05;4.00;;;1.80;;
8986;SDS011;4529;51.360;12.474;2023-02-26T14:48:14;2.37;;;1.37;;
8986;SDS011;4529;51.360;12.474;2023-02-26T15:03:54;2.30;;;1.13;;
8986;SDS011;4529;51.360;12.474;2023-02-26T15:20:21;1.73;;;1.20;;
8986;SDS011;4529;51.360;12.474;2023-02-26T15:25:35;2.37;;;1.23;;
8986;SDS011;4529;51.360;12.474;2023-02-26T15:30:41;1.20;;;1.10;;
8986;SDS011;4529;51.360;12.474;2023-02-26T15:35:44;2.43;;;1.13;;
8986;SDS011;4529;51.360;12.474;2023-02-26T15:40:49;0.80;;;0.80;;
8986;SDS011;4529;51.360;12.474;2023-02-26T15:45:55;1.33;;;1.10;;
8986;SDS011;4529;51.360;12.474;2023-02-26T15:50:56;3.20;;;1.00;;
8986;SDS011;4529;51.360;12.474;2023-02-26T15:55:59;1.40;;;1.30;;
8986;SDS011;4529;51.360;12.474;2023-02-26T16:01:15;2.97;;;1.20;;
8986;SDS011;4529;51.360;12.474;2023-02-26T16:06:31;1.43;;;1.10;;
8986;SDS011;4529;51.360;12.474;2023-02-26T16:11:34;1.30;;;1.20;;
8986;SDS011;4529;51.360;12.474;2023-02-26T16:16:44;1.57;;;1.30;;
8986;SDS011;4529;51.360;12.474;2023-02-26T16:21:48;3.13;;;1.23;;
8986;SDS011;4529;51.360;12.474;2023-02-26T16:26:52;3.83;;;1.70;;
8986;SDS011;4529;51.360;12.474;2023-02-26T16:32:00;4.93;;;1.20;;
8986;SDS011;4529;51.360;12.474;2023-02-26T16:37:11;2.37;;;1.13;;
8986;SDS011;4529;51.360;12.474;2023-02-26T16:47:23;2.33;;;1.80;;
8986;SDS011;4529;51.360;12.474;2023-02-26T16:52:27;2.43;;;1.37;;
8986;SDS011;4529;51.360;12.474;2023-02-26T16:57:34;3.10;;;1.10;;
8986;SDS011;4529;51.360;12.474;2023-02-26T17:02:37;2.40;;;1.30;;
8986;SDS011;4529;51.360;12.474;2023-02-26T17:07:48;2.33;;;1.33;;
8986;SDS011;4529;51.360;12.474;2023-02-26T17:13:14;1.60;;;1.20;;
8986;SDS011;4529;51.360;12.474;2023-02-26T17:18:17;2.67;;;1.40;;
8986;SDS011;4529;51.360;12.474;2023-02-26T17:23:22;1.40;;;1.30;;
8986;SDS011;4529;51.360;12.474;2023-02-26T17:28:26;1.47;;;1.37;;
8986;SDS011;4529;51.360;12.474;2023-02-26T17:33:32;1.47;;;1.30;;
8986;SDS011;4529;51.360;12.474;2023-02-26T17:38:35;1.50;;;1.40;;
8986;SDS011;4529;51.360;12.474;2023-02-26T17:43:39;1.37;;;1.27;;
8986;SDS011;4529;51.360;12.474;2023-02-26T17:48:42;2.13;;;1.40;;
8986;SDS011;4529;51.360;12.474;2023-02-26T17:53:46;1.93;;;1.23;;
8986;SDS011;4529;51.360;12.474;2023-02-26T17:58:55;3.30;;;1.50;;
8986;SDS011;4529;51.360;12.474;2023-02-26T18:03:58;5.20;;;1.23;;
8986;SDS011;4529;51.360;12.474;2023-02-26T18:09:02;1.73;;;1.60;;
8986;SDS011;4529;51.360;12.474;2023-02-26T18:14:05;1.93;;;1.43;;
8986;SDS011;4529;51.360;12.474;2023-02-26T18:19:09;1.47;;;1.37;;
8986;SDS011;4529;51.360;12.474;2023-02-26T18:24:12;1.77;;;1.40;;
8986;SDS011;4529;51.360;12.474;2023-02-26T18:29:16;1.50;;;1.40;;
8986;SDS011;4529;51.360;12.474;2023-02-26T18:34:20;1.63;;;1.50;;
8986;SDS011;4529;51.360;12.474;2023-02-26T18:39:24;2.83;;;1.43;;
8986;SDS011;4529;51.360;12.474;2023-02-26T18:44:28;1.57;;;1.33;;
8986;SDS011;4529;51.360;12.474;2023-02-26T18:49:32;1.93;;;1.50;;
8986;SDS011;4529;51.360;12.474;2023-02-26T18:54:36;1.70;;;1.60;;
8986;SDS011;4529;51.360;12.474;2023-02-26T18:59:39;1.70;;;1.60;;
8986;SDS011;4529;51.360;12.474;2023-02-26T19:04:43;2.00;;;1.50;;
8986;SDS011;4529;51.360;12.474;2023-02-26T19:09:47;1.53;;;1.40;;
8986;SDS011;4529;51.360;12.474;2023-02-26T19:14:50;2.97;;;1.80;;
8986;SDS011;4529;51.360;12.474;2023-02-26T19:19:54;1.70;;;1.43;;
8986;SDS011;4529;51.360;12.474;2023-02-26T19:24:58;2.60;;;2.00;;
8986;SDS011;4529;51.360;12.474;2023-02-26T19:30:04;4.13;;;1.87;;
8986;SDS011;4529;51.360;12.474;2023-02-26T19:35:08;3.87;;;2.10;;
8986;SDS011;4529;51.360;12.474;2023-02-26T19:40:12;3.10;;;2.37;;
8986;SDS011;4529;51.360;12.474;2023-02-26T19:45:15;2.40;;;1.93;;
8986;SDS011;4529;51.360;12.474;2023-02-26T19:50:19;4.10;;;2.03;;
8986;SDS011;4529;51.360;12.474;2023-02-26T19:55:23;2.80;;;1.60;;
8986;SDS011;4529;51.360;12.474;2023-02-26T20:00:32;2.13;;;1.70;;
8986;SDS011;4529;51.360;12.474;2023-02-26T20:05:35;2.70;;;1.90;;
8986;SDS011;4529;51.360;12.474;2023-02-26T20:10:38;4.00;;;1.97;;
8986;SDS011;4529;51.360;12.474;2023-02-26T20:15:42;2.30;;;2.10;;
8986;SDS011;4529;51.360;12.474;2023-02-26T20:20:45;3.40;;;2.30;;
8986;SDS011;4529;51.360;12.474;2023-02-26T20:25:49;3.93;;;2.50;;
8986;SDS011;4529;51.360;12.474;2023-02-26T20:30:53;4.33;;;2.20;;
8986;SDS011;4529;51.360;12.474;2023-02-26T20:35:56;3.17;;;2.07;;
8986;SDS011;4529;51.360;12.474;2023-02-26T20:40:59;4.30;;;2.43;;
8986;SDS011;4529;51.360;12.474;2023-02-26T20:46:04;4.53;;;2.47;;
8986;SDS011;4529;51.360;12.474;2023-02-26T20:51:07;3.43;;;2.40;;
8986;SDS011;4529;51.360;12.474;2023-02-26T20:56:11;5.57;;;2.77;;
8986;SDS011;4529;51.360;12.474;2023-02-26T21:01:24;3.57;;;2.50;;
8986;SDS011;4529;51.360;12.474;2023-02-26T21:06:27;3.90;;;2.67;;
8986;SDS011;4529;51.360;12.474;2023-02-26T21:11:31;3.50;;;2.67;;
8986;SDS011;4529;51.360;12.474;2023-02-26T21:16:34;3.47;;;2.67;;
8986;SDS011;4529;51.360;12.474;2023-02-26T21:21:38;3.17;;;2.60;;
8986;SDS011;4529;51.360;12.474;2023-02-26T21:26:41;3.47;;;2.40;;
8986;SDS011;4529;51.360;12.474;2023-02-26T21:31:48;4.13;;;3.00;;
8986;SDS011;4529;51.360;12.474;2023-02-26T21:36:51;6.37;;;3.30;;
8986;SDS011;4529;51.360;12.474;2023-02-26T21:41:55;5.70;;;3.30;;
8986;SDS011;4529;51.360;12.474;2023-02-26T21:46:58;4.50;;;2.90;;
8986;SDS011;4529;51.360;12.474;2023-02-26T21:52:03;2.83;;;2.47;;
8986;SDS011;4529;51.360;12.474;2023-02-26T21:57:07;3.60;;;2.50;;
8986;SDS011;4529;51.360;12.474;2023-02-26T22:02:15;5.13;;;2.50;;
8986;SDS011;4529;51.360;12.474;2023-02-26T22:07:19;4.53;;;2.70;;
8986;SDS011;4529;51.360;12.474;2023-02-26T22:12:22;2.30;;;2.10;;
8986;SDS011;4529;51.360;12.474;2023-02-26T22:17:25;2.40;;;2.03;;
8986;SDS011;4529;51.360;12.474;2023-02-26T22:22:30;2.27;;;2.03;;
8986;SDS011;4529;51.360;12.474;2023-02-26T22:27:33;3.40;;;2.30;;
8986;SDS011;4529;51.360;12.474;2023-02-26T22:32:37;3.50;;;2.30;;
8986;SDS011;4529;51.360;12.474;2023-02-26T22:37:40;3.63;;;2.40;;
8986;SDS011;4529;51.360;12.474;2023-02-26T22:42:44;3.47;;;2.70;;
8986;SDS011;4529;51.360;12.474;2023-02-26T22:47:47;6.53;;;3.73;;
8986;SDS011;4529;51.360;12.474;2023-02-26T22:52:51;5.63;;;3.30;;
8986;SDS011;4529;51.360;12.474;2023-02-26T22:57:55;7.83;;;3.80;;
8986;SDS011;4529;51.360;12.474;2023-02-26T23:03:03;8.30;;;3.97;;
8986;SDS011;4529;51.360;12.474;2023-02-26T23:08:07;6.23;;;3.43;;
8986;SDS011;4529;51.360;12.474;2023-02-26T23:13:10;3.40;;;2.63;;
8986;SDS011;4529;51.360;12.474;2023-02-26T23:18:14;3.33;;;2.43;;
8986;SDS011;4529;51.360;12.474;2023-02-26T23:23:17;2.80;;;1.83;;
8986;SDS011;4529;51.360;12.474;2023-02-26T23:28:21;2.40;;;1.97;;
8986;SDS011;4529;51.360;12.474;2023-02-26T23:33:25;2.00;;;1.80;;
8986;SDS011;4529;51.360;12.474;2023-02-26T23:38:29;2.30;;;1.90;;
8986;SDS011;4529;51.360;12.474;2023-02-26T23:43:33;1.67;;;1.40;;
8986;SDS011;4529;51.360;12.474;2023-02-26T23:48:38;2.27;;;1.83;;
8986;SDS011;4529;51.360;12.474;2023-02-26T23:53:42;5.23;;;2.37;;
8986;SDS011;4529;51.360;12.474;2023-02-26T23:58:46;5.83;;;2.80;;
